AAY8877 KBNA-KGTF
Flight info
| Callsign | AAY8877 |
|---|---|
| Flight time | N/A |
| Altitude | 34000 |
| Route | PARDN4 NAKIY STL Q19 TWAIN KORRN OTIVE MOTLY ISMAY |
| Aircraft | A320/M-SDE3FGHIRWY/LB1 |
Departure
| Time | 2026-05-05 20:33 |
|---|---|
| Airport | Nashville International Airport (KBNA) |
Arrival
| Time | N/A |
|---|---|
| Airport | Great Falls International Airport (KGTF) |
| Time | Latitude | Longitude | Altitude | Speed | Heading |
|---|---|---|---|---|---|
| 2026-05-05 20:18 | 36.12746 | -86.67284 | 575 ft | 0 kts | 186° |
| 2026-05-05 20:21 | 36.12760 | -86.67282 | 577 ft | 4 kts | 188° |
| 2026-05-05 20:22 | 36.12786 | -86.67276 | 575 ft | 4 kts | 202° |
| 2026-05-05 20:22 | 36.12805 | -86.67261 | 577 ft | 4 kts | 273° |
| 2026-05-05 20:22 | 36.12804 | -86.67253 | 576 ft | 0 kts | 316° |
| 2026-05-05 20:27 | 36.12807 | -86.67257 | 575 ft | 4 kts | 316° |
| 2026-05-05 20:27 | 36.12821 | -86.67308 | 579 ft | 9 kts | 246° |
| 2026-05-05 20:27 | 36.12761 | -86.67380 | 577 ft | 13 kts | 224° |
| 2026-05-05 20:27 | 36.12690 | -86.67448 | 575 ft | 12 kts | 209° |
| 2026-05-05 20:28 | 36.12617 | -86.67499 | 575 ft | 12 kts | 208° |
| 2026-05-05 20:28 | 36.12547 | -86.67569 | 579 ft | 15 kts | 225° |
| 2026-05-05 20:28 | 36.12456 | -86.67667 | 577 ft | 20 kts | 207° |
| 2026-05-05 20:28 | 36.12360 | -86.67718 | 575 ft | 12 kts | 231° |
| 2026-05-05 20:29 | 36.12372 | -86.67814 | 576 ft | 11 kts | 288° |
| 2026-05-05 20:29 | 36.12383 | -86.67856 | 579 ft | 0 kts | 289° |
| 2026-05-05 20:30 | 36.12386 | -86.67865 | 579 ft | 6 kts | 289° |
| 2026-05-05 20:30 | 36.12395 | -86.67958 | 575 ft | 12 kts | 248° |
| 2026-05-05 20:31 | 36.12369 | -86.68001 | 577 ft | 0 kts | 270° |
| 2026-05-05 20:31 | 36.12362 | -86.68001 | 579 ft | 1 kts | 193° |
| 2026-05-05 20:31 | 36.12345 | -86.67998 | 578 ft | 5 kts | 175° |
| 2026-05-05 20:31 | 36.12300 | -86.68009 | 575 ft | 0 kts | 198° |
| 2026-05-05 20:32 | 36.12141 | -86.68072 | 574 ft | 59 kts | 198° |
| 2026-05-05 20:32 | 36.11553 | -86.68307 | 576 ft | 116 kts | 198° |
| 2026-05-05 20:32 | 36.10639 | -86.68677 | 657 ft | 152 kts | 198° |
| 2026-05-05 20:33 | 36.09662 | -86.69085 | 1313 ft | 151 kts | 205° |
| 2026-05-05 20:33 | 36.08821 | -86.69896 | 1955 ft | 158 kts | 227° |
| 2026-05-05 20:33 | 36.08299 | -86.71123 | 2607 ft | 170 kts | 242° |
| 2026-05-05 20:33 | 36.07859 | -86.72553 | 3093 ft | 187 kts | 243° |
| 2026-05-05 20:34 | 36.07389 | -86.74095 | 3435 ft | 199 kts | 243° |
| 2026-05-05 20:34 | 36.06873 | -86.75799 | 3571 ft | 223 kts | 245° |
| 2026-05-05 20:34 | 36.06680 | -86.77823 | 3837 ft | 256 kts | 274° |
| 2026-05-05 20:34 | 36.07118 | -86.80009 | 4509 ft | 264 kts | 278° |
| 2026-05-05 20:35 | 36.07582 | -86.82204 | 5304 ft | 262 kts | 278° |
| 2026-05-05 20:35 | 36.08038 | -86.84380 | 6186 ft | 260 kts | 278° |
| 2026-05-05 20:35 | 36.08487 | -86.86546 | 6718 ft | 259 kts | 278° |
| 2026-05-05 20:35 | 36.09089 | -86.88619 | 6899 ft | 265 kts | 294° |
| 2026-05-05 20:36 | 36.10138 | -86.90559 | 7531 ft | 268 kts | 297° |
| 2026-05-05 20:36 | 36.11158 | -86.92443 | 8324 ft | 267 kts | 297° |
| 2026-05-05 20:36 | 36.12177 | -86.94357 | 9115 ft | 266 kts | 297° |
| 2026-05-05 20:36 | 36.13191 | -86.96274 | 9875 ft | 266 kts | 297° |
| 2026-05-05 20:37 | 36.14221 | -86.98226 | 10243 ft | 281 kts | 297° |
| 2026-05-05 20:37 | 36.15326 | -87.00335 | 10371 ft | 303 kts | 297° |
| 2026-05-05 20:37 | 36.16504 | -87.02571 | 10735 ft | 314 kts | 298° |
| 2026-05-05 20:37 | 36.17706 | -87.04831 | 11341 ft | 317 kts | 298° |
| 2026-05-05 20:38 | 36.18932 | -87.07125 | 11984 ft | 319 kts | 299° |
| 2026-05-05 20:38 | 36.20164 | -87.09428 | 12623 ft | 321 kts | 299° |
| 2026-05-05 20:38 | 36.21399 | -87.11741 | 13266 ft | 323 kts | 299° |
| 2026-05-05 20:38 | 36.22640 | -87.14073 | 13880 ft | 326 kts | 299° |
| 2026-05-05 20:39 | 36.23891 | -87.16425 | 14418 ft | 328 kts | 299° |
| 2026-05-05 20:39 | 36.25150 | -87.18800 | 14935 ft | 331 kts | 299° |
| 2026-05-05 20:39 | 36.26396 | -87.21214 | 15467 ft | 333 kts | 295° |
| 2026-05-05 20:39 | 36.27300 | -87.23836 | 15958 ft | 332 kts | 284° |
| 2026-05-05 20:40 | 36.27803 | -87.26632 | 16482 ft | 334 kts | 279° |
| 2026-05-05 20:40 | 36.28257 | -87.29469 | 16977 ft | 337 kts | 279° |
| 2026-05-05 20:40 | 36.28718 | -87.32330 | 17487 ft | 340 kts | 279° |
| 2026-05-05 20:40 | 36.29184 | -87.35218 | 17986 ft | 343 kts | 279° |
| 2026-05-05 20:41 | 36.29653 | -87.38128 | 18438 ft | 346 kts | 279° |
| 2026-05-05 20:41 | 36.30126 | -87.41070 | 18894 ft | 348 kts | 280° |
| 2026-05-05 20:41 | 36.30600 | -87.44021 | 19346 ft | 350 kts | 280° |
| 2026-05-05 20:41 | 36.31073 | -87.46999 | 19804 ft | 352 kts | 279° |
| 2026-05-05 20:42 | 36.31649 | -87.49955 | 20267 ft | 356 kts | 287° |
| 2026-05-05 20:42 | 36.32677 | -87.52764 | 20710 ft | 361 kts | 296° |
| 2026-05-05 20:42 | 36.33901 | -87.55456 | 21157 ft | 363 kts | 296° |
| 2026-05-05 20:42 | 36.35141 | -87.58194 | 21600 ft | 365 kts | 296° |
| 2026-05-05 20:43 | 36.36385 | -87.60951 | 22037 ft | 367 kts | 296° |
| 2026-05-05 20:43 | 36.37634 | -87.63720 | 22464 ft | 369 kts | 296° |
| 2026-05-05 20:43 | 36.38891 | -87.66510 | 22888 ft | 371 kts | 296° |
| 2026-05-05 20:43 | 36.40150 | -87.69315 | 23292 ft | 373 kts | 296° |
| 2026-05-05 20:44 | 36.41415 | -87.72135 | 23649 ft | 375 kts | 296° |
| 2026-05-05 20:44 | 36.42685 | -87.74967 | 23982 ft | 376 kts | 296° |
| 2026-05-05 20:44 | 36.43958 | -87.77811 | 24326 ft | 377 kts | 296° |
| 2026-05-05 20:44 | 36.45234 | -87.80663 | 24669 ft | 378 kts | 296° |
| 2026-05-05 20:45 | 36.47793 | -87.86372 | 25341 ft | 379 kts | 296° |
| 2026-05-05 20:45 | 36.49077 | -87.89240 | 25647 ft | 380 kts | 296° |
| 2026-05-05 20:45 | 36.50360 | -87.92116 | 25962 ft | 381 kts | 296° |
| 2026-05-05 20:46 | 36.51644 | -87.95006 | 26273 ft | 382 kts | 296° |
| 2026-05-05 20:46 | 36.52927 | -87.97898 | 26572 ft | 383 kts | 295° |
| 2026-05-05 20:46 | 36.54212 | -88.00805 | 26874 ft | 384 kts | 296° |
| 2026-05-05 20:46 | 36.55506 | -88.03721 | 27167 ft | 385 kts | 296° |
| 2026-05-05 20:47 | 36.56805 | -88.06643 | 27451 ft | 387 kts | 296° |
| 2026-05-05 20:47 | 36.58109 | -88.09576 | 27728 ft | 388 kts | 296° |
| 2026-05-05 20:47 | 36.59417 | -88.12520 | 27990 ft | 389 kts | 296° |
| 2026-05-05 20:47 | 36.60732 | -88.15477 | 28254 ft | 391 kts | 295° |
| 2026-05-05 20:48 | 36.62046 | -88.18441 | 28501 ft | 392 kts | 295° |
| 2026-05-05 20:48 | 36.63374 | -88.21423 | 28739 ft | 394 kts | 297° |
| 2026-05-05 20:48 | 36.64997 | -88.24212 | 28966 ft | 401 kts | 307° |
| 2026-05-05 20:48 | 36.67049 | -88.26612 | 29179 ft | 410 kts | 316° |
| 2026-05-05 20:49 | 36.69311 | -88.28793 | 29376 ft | 412 kts | 316° |
| 2026-05-05 20:49 | 36.71550 | -88.30960 | 29574 ft | 413 kts | 316° |
| 2026-05-05 20:49 | 36.73819 | -88.33163 | 29772 ft | 415 kts | 316° |
| 2026-05-05 20:49 | 36.76093 | -88.35379 | 30017 ft | 414 kts | 316° |
| 2026-05-05 20:50 | 36.78359 | -88.37593 | 30290 ft | 413 kts | 316° |
| 2026-05-05 20:50 | 36.80609 | -88.39796 | 30598 ft | 410 kts | 316° |
| 2026-05-05 20:50 | 36.82847 | -88.41986 | 30943 ft | 407 kts | 315° |
| 2026-05-05 20:50 | 36.85066 | -88.44159 | 31299 ft | 404 kts | 315° |
| 2026-05-05 20:51 | 36.87266 | -88.46317 | 31641 ft | 400 kts | 315° |
| 2026-05-05 20:51 | 36.89448 | -88.48458 | 31986 ft | 397 kts | 315° |
| 2026-05-05 20:51 | 36.91607 | -88.50579 | 32316 ft | 394 kts | 315° |
| 2026-05-05 20:51 | 36.93751 | -88.52685 | 32652 ft | 390 kts | 314° |
| 2026-05-05 20:52 | 36.95876 | -88.54773 | 32975 ft | 387 kts | 314° |
| 2026-05-05 20:52 | 36.97983 | -88.56845 | 33309 ft | 384 kts | 314° |
| 2026-05-05 20:52 | 37.00071 | -88.58902 | 33626 ft | 381 kts | 314° |
| 2026-05-05 20:52 | 37.02147 | -88.60950 | 33809 ft | 378 kts | 314° |
| 2026-05-05 20:53 | 37.06233 | -88.64977 | 33854 ft | 372 kts | 314° |
| 2026-05-05 20:53 | 37.10292 | -88.68986 | 33828 ft | 371 kts | 314° |
| 2026-05-05 20:54 | 37.14341 | -88.72995 | 33836 ft | 371 kts | 313° |
| 2026-05-05 20:54 | 37.18395 | -88.77011 | 33835 ft | 371 kts | 313° |
| 2026-05-05 20:55 | 37.22450 | -88.81029 | 33838 ft | 371 kts | 313° |
| 2026-05-05 20:55 | 37.26507 | -88.85050 | 33840 ft | 371 kts | 313° |
| 2026-05-05 20:56 | 37.30553 | -88.89074 | 33843 ft | 371 kts | 313° |
| 2026-05-05 20:56 | 37.34602 | -88.93117 | 33854 ft | 372 kts | 313° |
| 2026-05-05 20:57 | 37.38651 | -88.97153 | 33856 ft | 372 kts | 313° |
| 2026-05-05 20:57 | 37.42700 | -89.01194 | 33860 ft | 372 kts | 313° |
| 2026-05-05 20:58 | 37.46749 | -89.05239 | 33868 ft | 372 kts | 313° |
| 2026-05-05 20:58 | 37.50795 | -89.09293 | 33874 ft | 371 kts | 313° |
| 2026-05-05 20:59 | 37.54834 | -89.13349 | 33880 ft | 371 kts | 313° |
| 2026-05-05 20:59 | 37.58869 | -89.17404 | 33885 ft | 371 kts | 313° |
| 2026-05-05 21:00 | 37.62229 | -89.20778 | 33895 ft | 371 kts | 313° |
| 2026-05-05 21:00 | 37.66262 | -89.24843 | 33904 ft | 371 kts | 312° |
| 2026-05-05 21:01 | 37.70945 | -89.29574 | 33906 ft | 371 kts | 312° |
| 2026-05-05 21:01 | 37.74326 | -89.32982 | 33907 ft | 371 kts | 312° |
| 2026-05-05 21:02 | 37.78358 | -89.37047 | 33910 ft | 371 kts | 312° |
| 2026-05-05 21:02 | 37.82357 | -89.41093 | 33904 ft | 370 kts | 312° |
| 2026-05-05 21:03 | 37.86378 | -89.45172 | 33904 ft | 370 kts | 311° |
| 2026-05-05 21:03 | 37.90418 | -89.49282 | 33895 ft | 370 kts | 311° |
| 2026-05-05 21:04 | 37.94426 | -89.53361 | 33893 ft | 370 kts | 311° |
| 2026-05-05 21:04 | 37.98436 | -89.57440 | 33901 ft | 369 kts | 311° |
| 2026-05-05 21:05 | 38.02409 | -89.61499 | 33910 ft | 369 kts | 311° |
| 2026-05-05 21:05 | 38.06407 | -89.65583 | 33905 ft | 369 kts | 311° |
| 2026-05-05 21:06 | 38.10400 | -89.69664 | 33912 ft | 368 kts | 311° |
| 2026-05-05 21:06 | 38.14384 | -89.73750 | 33910 ft | 368 kts | 311° |
| 2026-05-05 21:07 | 38.18365 | -89.77840 | 33914 ft | 368 kts | 311° |
| 2026-05-05 21:07 | 38.22344 | -89.81926 | 33918 ft | 368 kts | 311° |
| 2026-05-05 21:08 | 38.26326 | -89.86010 | 33926 ft | 367 kts | 311° |
| 2026-05-05 21:08 | 38.30302 | -89.90100 | 33927 ft | 367 kts | 310° |
| 2026-05-05 21:09 | 38.34258 | -89.94196 | 33925 ft | 367 kts | 310° |
| 2026-05-05 21:09 | 38.38192 | -89.98267 | 33926 ft | 367 kts | 310° |
| 2026-05-05 21:10 | 38.42152 | -90.02364 | 33943 ft | 366 kts | 310° |
| 2026-05-05 21:10 | 38.46105 | -90.06455 | 33952 ft | 366 kts | 310° |
| 2026-05-05 21:11 | 38.50059 | -90.10556 | 33953 ft | 366 kts | 310° |
| 2026-05-05 21:11 | 38.53996 | -90.14657 | 33956 ft | 366 kts | 310° |
| 2026-05-05 21:12 | 38.57937 | -90.18766 | 33954 ft | 365 kts | 310° |
| 2026-05-05 21:12 | 38.61874 | -90.22867 | 33953 ft | 365 kts | 310° |
| 2026-05-05 21:13 | 38.65814 | -90.26974 | 33958 ft | 365 kts | 310° |
| 2026-05-05 21:13 | 38.69742 | -90.31088 | 33959 ft | 365 kts | 310° |
| 2026-05-05 21:14 | 38.73674 | -90.35202 | 33959 ft | 365 kts | 310° |
| 2026-05-05 21:14 | 38.77599 | -90.39315 | 33965 ft | 364 kts | 309° |
| 2026-05-05 21:15 | 38.81517 | -90.43432 | 33959 ft | 364 kts | 309° |
| 2026-05-05 21:15 | 38.85436 | -90.47554 | 33963 ft | 364 kts | 309° |
| 2026-05-05 21:16 | 38.89247 | -90.51774 | 33961 ft | 360 kts | 307° |
| 2026-05-05 21:16 | 38.92925 | -90.56131 | 33962 ft | 359 kts | 306° |
| 2026-05-05 21:17 | 38.96592 | -90.60492 | 33962 ft | 359 kts | 307° |
| 2026-05-05 21:17 | 39.00281 | -90.64831 | 33970 ft | 359 kts | 307° |
| 2026-05-05 21:18 | 39.03972 | -90.69157 | 33968 ft | 359 kts | 307° |
| 2026-05-05 21:18 | 39.07991 | -90.73068 | 33980 ft | 387 kts | 327° |
| 2026-05-05 21:19 | 39.10620 | -90.73980 | 33981 ft | 400 kts | 333° |
| 2026-05-05 21:19 | 39.13351 | -90.74720 | 33976 ft | 403 kts | 334° |
| 2026-05-05 21:19 | 39.18878 | -90.76063 | 33982 ft | 404 kts | 334° |
| 2026-05-05 21:20 | 39.24385 | -90.77480 | 33987 ft | 402 kts | 333° |
| 2026-05-05 21:20 | 39.29843 | -90.78992 | 33992 ft | 400 kts | 333° |
| 2026-05-05 21:21 | 39.35282 | -90.80538 | 33992 ft | 400 kts | 333° |
| 2026-05-05 21:21 | 39.37917 | -90.81481 | 33986 ft | 384 kts | 324° |
| 2026-05-05 21:21 | 39.40228 | -90.83003 | 33989 ft | 364 kts | 314° |
| 2026-05-05 21:22 | 39.42172 | -90.84999 | 33986 ft | 351 kts | 307° |
| 2026-05-05 21:22 | 39.43969 | -90.87129 | 33989 ft | 351 kts | 307° |
| 2026-05-05 21:22 | 39.47575 | -90.91409 | 33985 ft | 351 kts | 307° |
| 2026-05-05 21:23 | 39.51171 | -90.95689 | 33981 ft | 351 kts | 307° |
| 2026-05-05 21:23 | 39.54743 | -90.99942 | 34078 ft | 351 kts | 307° |
| 2026-05-05 21:24 | 39.58338 | -91.04218 | 34096 ft | 351 kts | 307° |
| 2026-05-05 21:24 | 39.61930 | -91.08500 | 34101 ft | 351 kts | 307° |
| 2026-05-05 21:25 | 39.65520 | -91.12792 | 34100 ft | 350 kts | 307° |
| 2026-05-05 21:25 | 39.69103 | -91.17076 | 34092 ft | 350 kts | 307° |
| 2026-05-05 21:26 | 39.72677 | -91.21357 | 34086 ft | 350 kts | 307° |
| 2026-05-05 21:26 | 39.75962 | -91.25890 | 33972 ft | 340 kts | 300° |
| 2026-05-05 21:27 | 39.78898 | -91.30697 | 33963 ft | 340 kts | 300° |
| 2026-05-05 21:27 | 39.81838 | -91.35515 | 33957 ft | 340 kts | 299° |
| 2026-05-05 21:28 | 39.84782 | -91.40350 | 33959 ft | 341 kts | 299° |
| 2026-05-05 21:28 | 39.87730 | -91.45182 | 33962 ft | 341 kts | 299° |
| 2026-05-05 21:29 | 39.90682 | -91.50032 | 33960 ft | 341 kts | 299° |
| 2026-05-05 21:29 | 39.93625 | -91.54888 | 33966 ft | 342 kts | 299° |
| 2026-05-05 21:30 | 39.96570 | -91.59755 | 33964 ft | 342 kts | 299° |
| 2026-05-05 21:30 | 39.99520 | -91.64626 | 33966 ft | 343 kts | 299° |
| 2026-05-05 21:31 | 40.02472 | -91.69505 | 33966 ft | 343 kts | 299° |
| 2026-05-05 21:31 | 40.05403 | -91.74359 | 33963 ft | 343 kts | 299° |
| 2026-05-05 21:32 | 40.08354 | -91.79256 | 33961 ft | 343 kts | 298° |
| 2026-05-05 21:32 | 40.11319 | -91.84190 | 33964 ft | 343 kts | 298° |
| 2026-05-05 21:33 | 40.14254 | -91.89074 | 33959 ft | 344 kts | 298° |
| 2026-05-05 21:33 | 40.17198 | -91.93994 | 33961 ft | 344 kts | 298° |
| 2026-05-05 21:34 | 40.20146 | -91.98925 | 33960 ft | 344 kts | 298° |
| 2026-05-05 21:34 | 40.23092 | -92.03860 | 33963 ft | 344 kts | 298° |
| 2026-05-05 21:35 | 40.26040 | -92.08798 | 33959 ft | 344 kts | 298° |
| 2026-05-05 21:35 | 40.28984 | -92.13741 | 33951 ft | 344 kts | 298° |
| 2026-05-05 21:36 | 40.31922 | -92.18693 | 33955 ft | 344 kts | 298° |
| 2026-05-05 21:36 | 40.34862 | -92.23652 | 33956 ft | 345 kts | 298° |
| 2026-05-05 21:37 | 40.37803 | -92.28610 | 33954 ft | 345 kts | 298° |
| 2026-05-05 21:37 | 40.40745 | -92.33576 | 33954 ft | 345 kts | 297° |
| 2026-05-05 21:38 | 40.43686 | -92.38545 | 33952 ft | 345 kts | 297° |
| 2026-05-05 21:38 | 40.46626 | -92.43527 | 33954 ft | 345 kts | 297° |
| 2026-05-05 21:39 | 40.49560 | -92.48514 | 33953 ft | 345 kts | 297° |
| 2026-05-05 21:39 | 40.52493 | -92.53504 | 33949 ft | 345 kts | 297° |
| 2026-05-05 21:40 | 40.55429 | -92.58500 | 33951 ft | 345 kts | 297° |
| 2026-05-05 21:40 | 40.58364 | -92.63510 | 33949 ft | 345 kts | 297° |
| 2026-05-05 21:41 | 40.61294 | -92.68518 | 33953 ft | 346 kts | 297° |
| 2026-05-05 21:41 | 40.64225 | -92.73535 | 33956 ft | 345 kts | 296° |
| 2026-05-05 21:42 | 40.67150 | -92.78552 | 33964 ft | 346 kts | 296° |
| 2026-05-05 21:42 | 40.70077 | -92.83574 | 33964 ft | 346 kts | 296° |
| 2026-05-05 21:43 | 40.72952 | -92.88511 | 33967 ft | 346 kts | 296° |
| 2026-05-05 21:43 | 40.75825 | -92.93454 | 33959 ft | 346 kts | 296° |
| 2026-05-05 21:44 | 40.78797 | -92.98588 | 33962 ft | 346 kts | 296° |
| 2026-05-05 21:44 | 40.81714 | -93.03635 | 33960 ft | 346 kts | 296° |
| 2026-05-05 21:45 | 40.84629 | -93.08681 | 33960 ft | 346 kts | 296° |
| 2026-05-05 21:45 | 40.87539 | -93.13733 | 33950 ft | 345 kts | 296° |
| 2026-05-05 21:46 | 40.90444 | -93.18781 | 33943 ft | 345 kts | 296° |
| 2026-05-05 21:46 | 40.93354 | -93.23835 | 33940 ft | 345 kts | 295° |
| 2026-05-05 21:47 | 40.96251 | -93.28896 | 33940 ft | 345 kts | 295° |
| 2026-05-05 21:47 | 40.99150 | -93.33966 | 33939 ft | 345 kts | 295° |
| 2026-05-05 21:48 | 41.01563 | -93.38178 | 33940 ft | 345 kts | 295° |
| 2026-05-05 21:48 | 41.04465 | -93.43255 | 33934 ft | 345 kts | 295° |
| 2026-05-05 21:49 | 41.07361 | -93.48329 | 33935 ft | 345 kts | 295° |
| 2026-05-05 21:49 | 41.10255 | -93.53410 | 33945 ft | 345 kts | 295° |
| 2026-05-05 21:50 | 41.13149 | -93.58502 | 33947 ft | 345 kts | 295° |
| 2026-05-05 21:50 | 41.16034 | -93.63590 | 33955 ft | 345 kts | 295° |
| 2026-05-05 21:51 | 41.18926 | -93.68690 | 33960 ft | 345 kts | 295° |
| 2026-05-05 21:51 | 41.21817 | -93.73794 | 33961 ft | 345 kts | 295° |
| 2026-05-05 21:52 | 41.26122 | -93.81423 | 33957 ft | 345 kts | 295° |
| 2026-05-05 21:53 | 41.28998 | -93.86541 | 33957 ft | 345 kts | 295° |
| 2026-05-05 21:53 | 41.31877 | -93.91659 | 33955 ft | 345 kts | 295° |
| 2026-05-05 21:54 | 41.34752 | -93.96778 | 33956 ft | 346 kts | 295° |
| 2026-05-05 21:54 | 41.37628 | -94.01913 | 33955 ft | 346 kts | 294° |
| 2026-05-05 21:55 | 41.40498 | -94.07047 | 33958 ft | 346 kts | 294° |
| 2026-05-05 21:55 | 41.43367 | -94.12181 | 33961 ft | 346 kts | 294° |
| 2026-05-05 21:56 | 41.46233 | -94.17327 | 33962 ft | 346 kts | 294° |
| 2026-05-05 21:56 | 41.49099 | -94.22476 | 33965 ft | 346 kts | 294° |
| 2026-05-05 21:57 | 41.51967 | -94.27640 | 33955 ft | 346 kts | 294° |
| 2026-05-05 21:57 | 41.54807 | -94.32766 | 33953 ft | 346 kts | 294° |
| 2026-05-05 21:58 | 41.57710 | -94.37909 | 33960 ft | 347 kts | 295° |
| 2026-05-05 21:58 | 41.60630 | -94.43040 | 33956 ft | 347 kts | 295° |
| 2026-05-05 21:59 | 41.63550 | -94.48186 | 33964 ft | 347 kts | 295° |
| 2026-05-05 21:59 | 41.66459 | -94.53338 | 33970 ft | 347 kts | 294° |
| 2026-05-05 22:00 | 41.69366 | -94.58502 | 33973 ft | 348 kts | 295° |
| 2026-05-05 22:00 | 41.72272 | -94.63674 | 33971 ft | 348 kts | 294° |
| 2026-05-05 22:01 | 41.75170 | -94.68844 | 33972 ft | 348 kts | 294° |
| 2026-05-05 22:01 | 41.78080 | -94.74049 | 33972 ft | 348 kts | 294° |
| 2026-05-05 22:02 | 41.80964 | -94.79213 | 33972 ft | 348 kts | 294° |
| 2026-05-05 22:02 | 41.83877 | -94.84414 | 33970 ft | 349 kts | 294° |
| 2026-05-05 22:03 | 41.86788 | -94.89631 | 33972 ft | 349 kts | 294° |
| 2026-05-05 22:03 | 41.89689 | -94.94854 | 33966 ft | 349 kts | 294° |
| 2026-05-05 22:04 | 41.92591 | -95.00093 | 33969 ft | 350 kts | 294° |
| 2026-05-05 22:04 | 41.95495 | -95.05320 | 33973 ft | 351 kts | 294° |
| 2026-05-05 22:05 | 41.98415 | -95.10587 | 33988 ft | 351 kts | 294° |
| 2026-05-05 22:05 | 42.01325 | -95.15869 | 33972 ft | 352 kts | 294° |
| 2026-05-05 22:06 | 42.04259 | -95.21191 | 33990 ft | 353 kts | 294° |
| 2026-05-05 22:06 | 42.07173 | -95.26482 | 33981 ft | 353 kts | 294° |
| 2026-05-05 22:07 | 42.10054 | -95.31733 | 33985 ft | 353 kts | 294° |
| 2026-05-05 22:07 | 42.13001 | -95.37093 | 33985 ft | 353 kts | 295° |
| 2026-05-05 22:08 | 42.15919 | -95.42412 | 33991 ft | 354 kts | 295° |
| 2026-05-05 22:08 | 42.18841 | -95.47772 | 33998 ft | 354 kts | 294° |
| 2026-05-05 22:09 | 42.21744 | -95.53098 | 33996 ft | 354 kts | 295° |
| 2026-05-05 22:09 | 42.24678 | -95.58481 | 33993 ft | 354 kts | 295° |
| 2026-05-05 22:10 | 42.27581 | -95.63834 | 33990 ft | 355 kts | 295° |
| 2026-05-05 22:10 | 42.30491 | -95.69192 | 33988 ft | 355 kts | 295° |
| 2026-05-05 22:11 | 42.33401 | -95.74566 | 33993 ft | 356 kts | 295° |
| 2026-05-05 22:11 | 42.36323 | -95.79979 | 33987 ft | 357 kts | 295° |
| 2026-05-05 22:12 | 42.39285 | -95.85447 | 33984 ft | 357 kts | 295° |
| 2026-05-05 22:12 | 42.42219 | -95.90876 | 34001 ft | 358 kts | 295° |
| 2026-05-05 22:13 | 42.45148 | -95.96333 | 34003 ft | 358 kts | 295° |
| 2026-05-05 22:13 | 42.48072 | -96.01793 | 33988 ft | 359 kts | 295° |
| 2026-05-05 22:14 | 42.50980 | -96.07240 | 33988 ft | 357 kts | 293° |
| 2026-05-05 22:14 | 42.53507 | -96.12972 | 33987 ft | 353 kts | 290° |
| 2026-05-05 22:15 | 42.55916 | -96.18766 | 33989 ft | 353 kts | 290° |
| 2026-05-05 22:15 | 42.58308 | -96.24523 | 33987 ft | 354 kts | 290° |
| 2026-05-05 22:16 | 42.60758 | -96.30381 | 33984 ft | 354 kts | 290° |
| 2026-05-05 22:16 | 42.63160 | -96.36117 | 33988 ft | 355 kts | 290° |
| 2026-05-05 22:17 | 42.65598 | -96.41933 | 33990 ft | 355 kts | 290° |
| 2026-05-05 22:17 | 42.68032 | -96.47770 | 33992 ft | 355 kts | 290° |
| 2026-05-05 22:18 | 42.70467 | -96.53622 | 33999 ft | 355 kts | 290° |
| 2026-05-05 22:18 | 42.72906 | -96.59460 | 34009 ft | 356 kts | 291° |
| 2026-05-05 22:19 | 42.75341 | -96.65311 | 34007 ft | 356 kts | 291° |
| 2026-05-05 22:19 | 42.77791 | -96.71235 | 34011 ft | 356 kts | 290° |
| 2026-05-05 22:20 | 42.80197 | -96.77083 | 34007 ft | 356 kts | 291° |
| 2026-05-05 22:20 | 42.82618 | -96.82957 | 34011 ft | 357 kts | 291° |
| 2026-05-05 22:21 | 42.84931 | -96.88569 | 34009 ft | 357 kts | 291° |
| 2026-05-05 22:21 | 42.87363 | -96.94485 | 34013 ft | 357 kts | 291° |
| 2026-05-05 22:22 | 42.89778 | -97.00370 | 34019 ft | 357 kts | 291° |